createdAt,value
2018-05-09T00:01:04.476Z,90.30
2018-05-09T00:03:32.125Z,90.50
2018-05-09T00:05:59.784Z,90.70
2018-05-09T00:08:27.426Z,90.80
2018-05-09T00:10:55.104Z,91.10
2018-05-09T00:13:22.783Z,91.30
2018-05-09T00:15:50.439Z,91.40
2018-05-09T00:18:18.074Z,91.60
2018-05-09T00:20:45.656Z,91.60
2018-05-09T00:23:13.337Z,91.90
2018-05-09T00:25:42.618Z,92.30
2018-05-09T00:28:10.312Z,92.30
2018-05-09T00:30:38.684Z,92.50
2018-05-09T00:33:07.101Z,92.50
2018-05-09T00:35:34.764Z,92.60
2018-05-09T00:38:02.439Z,92.50
2018-05-09T00:40:30.064Z,92.90
2018-05-09T00:42:57.711Z,93.00
2018-05-09T00:45:25.317Z,92.80
2018-05-09T00:47:52.954Z,93.00
2018-05-09T00:50:20.597Z,93.10
2018-05-09T00:52:48.202Z,93.50
2018-05-09T00:55:15.856Z,93.70
2018-05-09T00:57:43.499Z,93.80
2018-05-09T01:00:11.118Z,94.10
2018-05-09T01:02:38.713Z,94.20
2018-05-09T01:05:06.330Z,94.40
2018-05-09T01:07:33.933Z,94.60
2018-05-09T01:10:01.525Z,94.80
2018-05-09T01:12:29.125Z,95.00
2018-05-09T01:14:56.770Z,95.20
2018-05-09T01:17:24.432Z,95.40
2018-05-09T01:19:52.019Z,95.60
2018-05-09T01:22:19.649Z,95.70
2018-05-09T01:24:47.947Z,96.00
2018-05-09T01:27:15.565Z,96.20
2018-05-09T01:29:43.165Z,96.50
2018-05-09T01:32:12.370Z,97.00
2018-05-09T01:34:40.064Z,97.00
2018-05-09T01:37:08.419Z,97.40
2018-05-09T01:39:36.082Z,97.60
2018-05-09T01:42:03.679Z,97.60
2018-05-09T01:44:31.300Z,98.10
2018-05-09T01:46:58.905Z,98.30
2018-05-09T01:49:26.515Z,98.60
2018-05-09T01:51:54.125Z,98.70
2018-05-09T01:54:21.751Z,98.90
2018-05-09T01:56:49.378Z,99.00
2018-05-09T01:59:17.076Z,99.20
2018-05-09T02:01:44.718Z,99.50
2018-05-09T02:04:12.316Z,99.70
2018-05-09T02:06:40.984Z,99.90
2018-05-09T02:09:08.649Z,99.90
2018-05-09T02:11:37.139Z,99.90
2018-05-09T02:14:05.538Z,99.90
2018-05-09T02:16:33.148Z,99.90
2018-05-09T02:19:01.137Z,99.90
2018-05-09T02:21:28.775Z,99.90
2018-05-09T02:23:57.311Z,99.90
2018-05-09T02:26:25.713Z,99.90
2018-05-09T02:28:53.359Z,99.90
2018-05-09T02:31:21.054Z,99.90
2018-05-09T02:33:48.715Z,99.90
2018-05-09T02:36:16.308Z,99.90
2018-05-09T02:38:44.041Z,99.90
2018-05-09T02:41:11.719Z,99.90
2018-05-09T02:43:39.383Z,99.90
2018-05-09T02:46:07.826Z,99.90
2018-05-09T02:48:36.145Z,99.90
2018-05-09T02:51:03.759Z,99.90
2018-05-09T02:53:31.342Z,99.90
2018-05-09T02:55:58.948Z,99.90
2018-05-09T02:58:26.604Z,99.90
2018-05-09T03:00:54.961Z,99.90
2018-05-09T03:03:23.339Z,99.90
2018-05-09T03:05:50.964Z,99.90
2018-05-09T03:08:18.641Z,99.90
2018-05-09T03:10:46.244Z,99.90
2018-05-09T03:13:15.409Z,99.90
2018-05-09T03:15:43.039Z,99.90
2018-05-09T03:18:10.660Z,99.90
2018-05-09T03:20:38.331Z,99.90
2018-05-09T03:23:06.693Z,99.90
2018-05-09T03:25:34.293Z,99.90
2018-05-09T03:28:01.992Z,99.90
2018-05-09T03:30:29.554Z,99.90
2018-05-09T03:32:57.203Z,99.90
2018-05-09T03:35:25.762Z,99.90
2018-05-09T03:37:53.403Z,99.90
2018-05-09T03:40:21.024Z,99.90
2018-05-09T03:42:48.645Z,99.90
2018-05-09T03:45:16.252Z,99.90
2018-05-09T03:47:43.822Z,99.90
2018-05-09T03:50:11.458Z,99.90
2018-05-09T03:52:39.035Z,99.90
2018-05-09T03:55:06.696Z,99.90
2018-05-09T03:57:34.319Z,99.90
2018-05-09T04:00:01.947Z,99.90
2018-05-09T04:02:44.174Z,99.90
2018-05-09T04:05:23.544Z,99.90
2018-05-09T04:08:03.243Z,99.90
2018-05-09T04:10:30.968Z,99.90
2018-05-09T04:12:58.596Z,99.90
2018-05-09T04:15:26.406Z,99.90
2018-05-09T04:17:54.047Z,99.90
2018-05-09T04:20:22.424Z,99.90
2018-05-09T04:22:50.254Z,99.90
2018-05-09T04:25:17.882Z,99.90
2018-05-09T04:27:45.567Z,99.90
2018-05-09T04:30:14.843Z,99.90
2018-05-09T04:32:42.496Z,99.90
2018-05-09T04:35:10.817Z,99.90
2018-05-09T04:37:38.399Z,99.90
2018-05-09T04:40:06.613Z,99.90
2018-05-09T04:42:35.170Z,99.90
2018-05-09T04:45:02.791Z,99.90
2018-05-09T04:47:30.505Z,99.90
2018-05-09T04:49:58.111Z,99.90
2018-05-09T04:52:25.753Z,99.90
2018-05-09T04:54:53.567Z,99.90
2018-05-09T04:57:21.299Z,99.90
2018-05-09T04:59:48.933Z,99.90
2018-05-09T05:02:16.627Z,99.90
2018-05-09T05:04:44.850Z,99.90
2018-05-09T05:07:12.482Z,99.90
2018-05-09T05:09:40.167Z,99.90
2018-05-09T05:12:07.767Z,99.90
2018-05-09T05:14:35.507Z,99.90
2018-05-09T05:17:03.990Z,99.40
2018-05-09T05:19:31.628Z,98.40
2018-05-09T05:21:59.334Z,97.30
2018-05-09T05:24:26.962Z,96.70
2018-05-09T05:26:55.695Z,96.00
2018-05-09T05:29:23.408Z,95.10
2018-05-09T05:31:51.015Z,94.20
2018-05-09T05:34:18.991Z,93.50
2018-05-09T05:36:47.953Z,91.60
2018-05-09T05:39:15.661Z,91.50
2018-05-09T05:41:43.247Z,90.50
2018-05-09T05:44:10.941Z,90.20
2018-05-09T05:46:38.658Z,89.70
2018-05-09T05:49:06.246Z,88.80
2018-05-09T05:51:33.876Z,88.20
2018-05-09T05:54:01.539Z,88.90
2018-05-09T05:56:29.231Z,88.80
2018-05-09T05:58:56.876Z,89.30
2018-05-09T06:01:24.504Z,88.20
2018-05-09T06:03:52.110Z,88.60
2018-05-09T06:06:19.766Z,89.10
2018-05-09T06:08:48.082Z,85.70
2018-05-09T06:11:15.722Z,84.90
2018-05-09T06:13:43.314Z,83.90
2018-05-09T06:16:10.947Z,81.90
2018-05-09T06:18:38.555Z,80.10
2018-05-09T06:21:06.923Z,78.00
2018-05-09T06:23:34.538Z,78.00
2018-05-09T06:26:02.670Z,76.10
2018-05-09T06:28:31.132Z,74.90
2018-05-09T06:30:59.531Z,73.00
2018-05-09T06:33:27.082Z,72.90
2018-05-09T06:35:55.638Z,73.00
2018-05-09T06:38:24.007Z,75.80
2018-05-09T06:40:51.603Z,75.70
2018-05-09T06:43:19.958Z,80.90
2018-05-09T06:45:47.543Z,81.00
2018-05-09T06:48:15.190Z,82.80
2018-05-09T06:50:42.759Z,84.30
2018-05-09T06:53:11.259Z,87.00
2018-05-09T06:55:38.868Z,87.00
2018-05-09T06:58:06.561Z,88.40
2018-05-09T07:00:34.995Z,91.20
2018-05-09T07:03:02.660Z,91.20
2018-05-09T07:05:30.266Z,91.00
2018-05-09T07:07:57.864Z,91.80
2018-05-09T07:10:25.490Z,92.10
2018-05-09T07:12:53.854Z,92.60
2018-05-09T07:15:21.441Z,92.60
2018-05-09T07:17:49.106Z,92.90
2018-05-09T07:20:16.823Z,92.90
2018-05-09T07:22:44.530Z,92.80
2018-05-09T07:25:12.909Z,92.80
2018-05-09T07:27:40.551Z,92.80
2018-05-09T07:30:08.168Z,92.90
2018-05-09T07:32:35.774Z,92.00
2018-05-09T07:35:04.166Z,92.10
2018-05-09T07:37:32.519Z,92.40
2018-05-09T07:40:00.095Z,92.40
2018-05-09T07:42:29.167Z,92.80
2018-05-09T07:44:56.776Z,92.80
2018-05-09T07:47:24.421Z,93.00
2018-05-09T07:49:52.788Z,92.20
2018-05-09T07:52:20.367Z,92.10
2018-05-09T07:54:48.733Z,91.80
2018-05-09T07:57:17.101Z,92.30
2018-05-09T07:59:44.740Z,92.30
2018-05-09T08:02:12.317Z,92.00
2018-05-09T08:04:40.074Z,92.30
2018-05-09T08:07:07.719Z,91.60
2018-05-09T08:09:35.327Z,91.20
2018-05-09T08:12:04.326Z,91.40
2018-05-09T08:14:32.676Z,91.60
2018-05-09T08:17:01.081Z,92.20
2018-05-09T08:19:28.688Z,92.10
2018-05-09T08:21:56.275Z,91.90
2018-05-09T08:24:23.890Z,91.90
2018-05-09T08:26:51.526Z,91.70
2018-05-09T08:29:19.111Z,90.90
2018-05-09T08:31:46.698Z,90.80
2018-05-09T08:34:14.481Z,90.70
2018-05-09T08:36:42.106Z,90.80
2018-05-09T08:39:09.768Z,91.20
2018-05-09T08:41:37.334Z,90.90
2018-05-09T08:44:04.955Z,90.60
2018-05-09T08:46:33.329Z,90.40
2018-05-09T08:49:01.688Z,90.50
2018-05-09T08:51:29.887Z,90.60
2018-05-09T08:53:57.539Z,90.00
2018-05-09T08:56:26.004Z,88.80
2018-05-09T08:58:53.626Z,88.70
2018-05-09T09:01:21.289Z,88.30
2018-05-09T09:03:48.888Z,89.40
2018-05-09T09:06:16.501Z,89.40
2018-05-09T09:08:44.062Z,87.70
2018-05-09T09:11:11.674Z,87.90
2018-05-09T09:13:39.356Z,89.40
2018-05-09T09:16:06.977Z,87.00
2018-05-09T09:18:34.569Z,86.80
2018-05-09T09:21:02.954Z,85.20
2018-05-09T09:23:31.316Z,84.50
2018-05-09T09:25:58.896Z,84.40
2018-05-09T09:28:26.527Z,86.10
2018-05-09T09:30:54.144Z,84.70
2018-05-09T09:33:21.729Z,83.50
2018-05-09T09:35:49.375Z,84.60
2018-05-09T09:38:16.965Z,82.20
2018-05-09T09:40:44.603Z,80.90
2018-05-09T09:43:12.195Z,81.40
2018-05-09T09:45:39.825Z,80.90
2018-05-09T09:48:07.384Z,80.80
2018-05-09T09:50:35.038Z,77.70
2018-05-09T09:53:02.633Z,80.70
2018-05-09T09:55:30.239Z,79.20
2018-05-09T09:57:57.785Z,78.70
2018-05-09T10:00:26.191Z,80.60
2018-05-09T10:02:53.800Z,80.60
2018-05-09T10:05:21.422Z,79.30
2018-05-09T10:07:49.026Z,71.20
2018-05-09T10:10:16.613Z,74.10
2018-05-09T10:12:44.265Z,72.20
2018-05-09T10:15:12.637Z,72.40
2018-05-09T10:17:41.033Z,72.70
2018-05-09T10:20:08.718Z,72.70
2018-05-09T10:22:36.293Z,67.60
2018-05-09T10:25:03.908Z,69.30
2018-05-09T10:27:32.313Z,68.50
2018-05-09T10:29:59.922Z,68.40
2018-05-09T10:32:27.540Z,66.30
2018-05-09T10:34:55.163Z,69.00
2018-05-09T10:37:23.561Z,70.00
2018-05-09T10:39:51.926Z,71.70
2018-05-09T10:42:20.306Z,71.70
2018-05-09T10:44:48.662Z,71.90
2018-05-09T10:47:17.088Z,71.20
2018-05-09T10:49:44.679Z,72.00
2018-05-09T10:52:12.267Z,70.80
2018-05-09T10:54:39.953Z,69.20
2018-05-09T10:57:08.334Z,68.00
2018-05-09T10:59:36.706Z,69.40
2018-05-09T11:02:05.090Z,70.00
2018-05-09T11:04:32.730Z,70.00
2018-05-09T11:07:00.329Z,70.80
2018-05-09T11:09:27.937Z,69.70
2018-05-09T11:11:55.539Z,69.90
2018-05-09T11:14:23.903Z,68.50
2018-05-09T11:16:52.293Z,68.20
2018-05-09T11:19:20.649Z,67.80
2018-05-09T11:21:48.263Z,67.80
2018-05-09T11:24:15.850Z,68.50
2018-05-09T11:26:43.463Z,68.20
2018-05-09T11:29:11.065Z,68.80
2018-05-09T11:31:38.660Z,68.20
2018-05-09T11:34:07.039Z,65.50
2018-05-09T11:36:35.417Z,66.70
2018-05-09T11:39:03.107Z,66.60
2018-05-09T11:41:30.740Z,66.30
2018-05-09T11:43:58.346Z,67.90
2018-05-09T11:46:27.953Z,65.30
2018-05-09T11:48:55.576Z,65.90
2018-05-09T11:51:23.935Z,65.70
2018-05-09T11:53:51.509Z,65.70
2018-05-09T11:56:19.899Z,66.20
2018-05-09T11:58:47.455Z,66.20
2018-05-09T12:01:15.082Z,65.50
2018-05-09T12:03:42.705Z,64.90
2018-05-09T12:06:10.289Z,64.90
2018-05-09T12:08:37.872Z,66.30
2018-05-09T12:11:05.485Z,64.80
2018-05-09T12:13:33.132Z,64.10
2018-05-09T12:16:00.740Z,65.80
2018-05-09T12:18:28.331Z,64.80
2018-05-09T12:20:56.705Z,63.90
2018-05-09T12:23:24.278Z,63.90
2018-05-09T12:25:52.694Z,64.20
2018-05-09T12:28:20.257Z,64.20
2018-05-09T12:30:47.824Z,64.50
2018-05-09T12:33:15.431Z,64.00
2018-05-09T12:35:43.056Z,62.90
2018-05-09T12:38:10.688Z,62.90
2018-05-09T12:40:38.263Z,62.20
2018-05-09T12:43:05.858Z,62.40
2018-05-09T12:45:33.435Z,63.10
2018-05-09T12:48:01.039Z,63.90
2018-05-09T12:50:28.666Z,63.20
2018-05-09T12:52:57.059Z,62.80
2018-05-09T12:55:24.655Z,62.80
2018-05-09T12:57:52.312Z,62.70
2018-05-09T13:00:20.035Z,62.10
2018-05-09T13:02:48.191Z,62.80
2018-05-09T13:05:15.867Z,62.20
2018-05-09T13:07:43.577Z,63.50
2018-05-09T13:10:11.976Z,61.60
2018-05-09T13:12:39.609Z,61.70
2018-05-09T13:15:07.229Z,61.70
2018-05-09T13:17:35.631Z,63.80
2018-05-09T13:20:03.264Z,63.80
2018-05-09T13:22:31.720Z,62.00
2018-05-09T13:24:59.329Z,62.00
2018-05-09T13:27:26.931Z,62.40
2018-05-09T13:29:54.652Z,62.40
2018-05-09T13:32:23.314Z,63.20
2018-05-09T13:34:50.926Z,63.20
2018-05-09T13:37:18.563Z,63.90
2018-05-09T13:39:46.914Z,62.60
2018-05-09T13:42:14.499Z,62.60
2018-05-09T13:44:42.126Z,63.40
2018-05-09T13:47:09.749Z,63.80
2018-05-09T13:49:37.329Z,62.70
2018-05-09T13:52:04.950Z,62.60
2018-05-09T13:54:32.599Z,63.20
2018-05-09T13:57:00.175Z,63.40
2018-05-09T13:59:27.796Z,63.10
2018-05-09T14:01:56.200Z,62.60
2018-05-09T14:04:24.599Z,62.10
2018-05-09T14:06:52.224Z,62.00
2018-05-09T14:09:20.602Z,62.20
2018-05-09T14:11:48.888Z,62.20
2018-05-09T14:14:16.516Z,62.00
2018-05-09T14:16:44.299Z,63.40
2018-05-09T14:19:11.896Z,64.70
2018-05-09T14:21:39.512Z,63.10
2018-05-09T14:24:07.130Z,63.30
2018-05-09T14:26:34.785Z,63.60
2018-05-09T14:29:02.370Z,63.80
2018-05-09T14:31:29.951Z,64.40
2018-05-09T14:33:57.584Z,64.60
2018-05-09T14:36:25.178Z,65.20
2018-05-09T14:38:52.823Z,66.00
2018-05-09T14:41:20.413Z,66.90
2018-05-09T14:43:47.992Z,67.30
2018-05-09T14:46:15.588Z,67.80
2018-05-09T14:48:43.180Z,67.80
2018-05-09T14:51:10.836Z,67.60
2018-05-09T14:53:38.439Z,67.60
2018-05-09T14:56:06.102Z,68.30
2018-05-09T14:58:34.423Z,69.40
2018-05-09T15:01:01.985Z,69.40
2018-05-09T15:03:29.697Z,69.30
2018-05-09T15:05:57.515Z,68.90
2018-05-09T15:08:25.885Z,69.40
2018-05-09T15:10:53.498Z,69.40
2018-05-09T15:13:21.109Z,69.60
2018-05-09T15:15:49.282Z,69.90
2018-05-09T15:18:16.941Z,70.30
2018-05-09T15:20:44.540Z,70.10
2018-05-09T15:23:12.927Z,70.40
2018-05-09T15:25:40.539Z,70.40
2018-05-09T15:28:08.141Z,70.30
2018-05-09T15:30:35.785Z,71.20
2018-05-09T15:33:03.650Z,70.10
2018-05-09T15:35:31.517Z,69.60
2018-05-09T15:37:59.097Z,69.70
2018-05-09T15:40:26.708Z,69.70
2018-05-09T15:42:54.289Z,70.70
2018-05-09T15:45:21.936Z,69.20
2018-05-09T15:47:49.587Z,69.40
2018-05-09T15:50:17.293Z,69.50
2018-05-09T15:52:44.931Z,69.20
2018-05-09T15:55:12.531Z,68.10
2018-05-09T15:57:40.939Z,68.40
2018-05-09T16:00:08.513Z,68.30
2018-05-09T16:02:36.110Z,68.70
2018-05-09T16:05:03.674Z,67.30
2018-05-09T16:07:31.264Z,67.90
2018-05-09T16:09:59.689Z,67.70
2018-05-09T16:12:27.369Z,67.50
2018-05-09T16:14:55.647Z,67.90
2018-05-09T16:17:23.269Z,67.80
2018-05-09T16:19:50.938Z,68.00
2018-05-09T16:22:18.657Z,68.10
2018-05-09T16:24:46.241Z,68.30
2018-05-09T16:27:13.873Z,68.70
2018-05-09T16:29:41.450Z,69.10
2018-05-09T16:32:09.898Z,68.80
2018-05-09T16:34:37.490Z,69.50
2018-05-09T16:37:05.891Z,68.70
2018-05-09T16:39:33.479Z,68.70
2018-05-09T16:42:01.119Z,69.00
2018-05-09T16:44:28.701Z,69.00
2018-05-09T16:46:56.303Z,69.30
2018-05-09T16:49:23.972Z,70.00
2018-05-09T16:51:52.492Z,68.40
2018-05-09T16:54:20.112Z,68.30
2018-05-09T16:56:48.470Z,69.00
2018-05-09T16:59:16.126Z,69.00
2018-05-09T17:01:43.809Z,68.80
2018-05-09T17:04:11.435Z,68.50
2018-05-09T17:06:39.235Z,69.00
2018-05-09T17:09:07.568Z,69.80
2018-05-09T17:11:35.185Z,69.80
2018-05-09T17:14:03.531Z,68.70
2018-05-09T17:16:31.112Z,68.70
2018-05-09T17:18:58.672Z,67.40
2018-05-09T17:21:40.208Z,65.70
2018-05-09T17:24:07.804Z,64.20
2018-05-09T17:26:35.411Z,62.80
2018-05-09T17:29:02.989Z,61.90
2018-05-09T17:31:30.600Z,61.40
2018-05-09T17:33:58.192Z,60.50
2018-05-09T17:36:25.808Z,60.30
2018-05-09T17:38:53.433Z,61.00
2018-05-09T17:41:21.033Z,61.90
2018-05-09T17:43:48.657Z,62.40
2018-05-09T17:46:16.251Z,63.50
2018-05-09T17:48:43.859Z,65.30
2018-05-09T17:51:11.452Z,67.00
2018-05-09T17:53:39.045Z,68.40
2018-05-09T17:56:06.632Z,69.60
2018-05-09T17:58:34.293Z,70.60
2018-05-09T18:01:01.913Z,71.60
2018-05-09T18:03:29.542Z,72.50
2018-05-09T18:05:57.137Z,73.00
2018-05-09T18:08:24.741Z,73.60
2018-05-09T18:10:52.379Z,74.50
2018-05-09T18:13:20.013Z,75.40
2018-05-09T18:15:47.601Z,75.90
2018-05-09T18:18:15.331Z,76.40
2018-05-09T18:20:42.933Z,77.60
2018-05-09T18:23:10.590Z,78.10
2018-05-09T18:25:38.261Z,78.70
2018-05-09T18:28:05.838Z,79.40
2018-05-09T18:30:34.272Z,80.60
2018-05-09T18:33:01.941Z,80.50
2018-05-09T18:35:30.415Z,80.80
2018-05-09T18:37:58.033Z,81.00
2018-05-09T18:40:25.605Z,81.40
2018-05-09T18:42:53.320Z,81.60
2018-05-09T18:45:20.934Z,82.10
2018-05-09T18:47:48.670Z,82.50
2018-05-09T18:50:16.272Z,82.80
2018-05-09T18:52:43.911Z,83.20
2018-05-09T18:55:11.529Z,83.60
2018-05-09T18:57:39.078Z,83.80
2018-05-09T19:00:06.653Z,84.10
2018-05-09T19:02:34.227Z,84.50
2018-05-09T19:05:01.844Z,85.10
2018-05-09T19:07:29.464Z,85.60
2018-05-09T19:09:57.053Z,86.20
2018-05-09T19:12:24.603Z,86.40
2018-05-09T19:14:52.235Z,87.00
2018-05-09T19:17:19.855Z,87.40
2018-05-09T19:19:47.487Z,87.80
2018-05-09T19:22:15.101Z,88.00
2018-05-09T19:24:42.652Z,88.40
2018-05-09T19:27:10.233Z,88.60
2018-05-09T19:29:38.607Z,88.90
2018-05-09T19:32:06.281Z,88.90
2018-05-09T19:34:33.914Z,89.60
2018-05-09T19:37:01.549Z,89.90
2018-05-09T19:39:29.164Z,90.20
2018-05-09T19:41:56.796Z,90.30
2018-05-09T19:44:24.450Z,90.30
2018-05-09T19:46:52.044Z,90.50
2018-05-09T19:49:20.362Z,90.70
2018-05-09T19:51:48.069Z,90.60
2018-05-09T19:54:15.655Z,90.80
2018-05-09T19:56:44.010Z,91.40
2018-05-09T19:59:11.602Z,91.40
2018-05-09T20:01:39.200Z,91.00
2018-05-09T20:04:06.751Z,91.10
2018-05-09T20:06:35.387Z,91.20
2018-05-09T20:09:03.756Z,91.40
2018-05-09T20:11:31.301Z,91.40
2018-05-09T20:13:58.948Z,91.90
2018-05-09T20:16:27.280Z,91.70
2018-05-09T20:18:54.876Z,91.70
2018-05-09T20:21:23.417Z,91.80
2018-05-09T20:23:51.938Z,92.00
2018-05-09T20:26:19.563Z,92.00
2018-05-09T20:28:52.845Z,92.00
2018-05-09T20:31:38.193Z,92.20
2018-05-09T20:34:05.733Z,92.40
2018-05-09T20:36:33.363Z,92.60
2018-05-09T20:39:00.978Z,92.50
2018-05-09T20:41:29.339Z,93.40
2018-05-09T20:43:56.964Z,92.90
2018-05-09T20:46:24.564Z,93.00
2018-05-09T20:48:52.164Z,93.20
2018-05-09T21:04:55.161Z,93.70
2018-05-09T21:07:23.532Z,94.10
2018-05-09T21:09:51.866Z,94.20
2018-05-09T21:12:19.458Z,94.20
2018-05-09T21:14:47.050Z,94.30
2018-05-09T21:17:14.638Z,94.30
2018-05-09T21:19:42.210Z,94.40
2018-05-09T21:22:09.785Z,94.50
2018-05-09T21:24:37.364Z,95.00
2018-05-09T21:27:05.735Z,95.00
2018-05-09T21:29:34.106Z,95.30
2018-05-09T21:32:01.696Z,95.00
2018-05-09T21:34:30.317Z,95.30
2018-05-09T21:36:58.037Z,95.20
2018-05-09T21:39:26.426Z,95.50
2018-05-09T21:41:54.047Z,95.50
2018-05-09T21:44:21.688Z,95.60
2018-05-09T21:46:49.244Z,95.90
2018-05-09T21:49:16.851Z,96.00
2018-05-09T21:51:45.216Z,96.20
2018-05-09T21:54:12.794Z,96.20
2018-05-09T21:56:41.132Z,96.50
2018-05-09T21:59:08.747Z,96.50
2018-05-09T22:01:36.344Z,96.60
2018-05-09T22:04:04.009Z,96.70
2018-05-09T22:06:31.581Z,96.90
2018-05-09T22:08:59.153Z,97.00
2018-05-09T22:11:26.759Z,97.00
2018-05-09T22:13:54.338Z,97.10
2018-05-09T22:16:21.977Z,97.10
2018-05-09T22:18:49.639Z,97.20
2018-05-09T22:21:17.267Z,97.30
2018-05-09T22:23:44.834Z,97.30
2018-05-09T22:26:12.413Z,97.40
2018-05-09T22:28:40.018Z,97.60
2018-05-09T22:31:07.656Z,97.60
2018-05-09T22:33:35.284Z,97.80
2018-05-09T22:36:03.728Z,98.00
2018-05-09T22:38:31.302Z,98.00
2018-05-09T22:40:59.009Z,98.10
2018-05-09T22:43:26.652Z,98.20
2018-05-09T22:45:55.159Z,98.40
2018-05-09T22:48:22.743Z,98.30
2018-05-09T22:50:50.285Z,98.40
2018-05-09T22:53:17.898Z,98.40
2018-05-09T22:55:45.501Z,98.60
2018-05-09T22:58:13.152Z,98.70
2018-05-09T23:00:40.703Z,98.60
2018-05-09T23:03:08.314Z,98.80
2018-05-09T23:05:35.904Z,98.80
2018-05-09T23:08:03.490Z,98.70
2018-05-09T23:10:31.828Z,99.10
2018-05-09T23:12:59.412Z,99.10
2018-05-09T23:15:27.754Z,99.30
2018-05-09T23:17:55.378Z,99.30
2018-05-09T23:20:22.989Z,99.30
2018-05-09T23:22:50.562Z,99.30
2018-05-09T23:25:18.124Z,99.30
2018-05-09T23:27:45.715Z,99.20
2018-05-09T23:30:13.313Z,99.40
2018-05-09T23:32:40.851Z,99.40
2018-05-09T23:35:08.440Z,99.50
2018-05-09T23:37:36.009Z,99.50
2018-05-09T23:40:04.430Z,99.50
2018-05-09T23:42:32.009Z,99.50
2018-05-09T23:44:59.634Z,99.60
2018-05-09T23:47:27.987Z,99.90
2018-05-09T23:49:55.560Z,99.70
2018-05-09T23:52:23.156Z,99.90
2018-05-09T23:54:50.703Z,99.90
2018-05-09T23:57:19.061Z,99.90
2018-05-09T23:59:47.431Z,99.90
